sensor_id;sensor_type;location;lat;lon;timestamp;pressure;altitude;pressure_sealevel;temperature;humidity
48636;BME280;34429;52.332;5.614;2022-09-20T00:01:31;102210.22;;;10.50;100.00
48636;BME280;34429;52.332;5.614;2022-09-20T00:04:01;102202.78;;;10.54;100.00
48636;BME280;34429;52.332;5.614;2022-09-20T00:06:33;102208.19;;;10.54;100.00
48636;BME280;34429;52.332;5.614;2022-09-20T00:09:02;102207.97;;;10.57;100.00
48636;BME280;34429;52.332;5.614;2022-09-20T00:11:32;102210.22;;;10.50;100.00
48636;BME280;34429;52.332;5.614;2022-09-20T00:14:02;102210.13;;;10.51;100.00
48636;BME280;34429;52.332;5.614;2022-09-20T00:16:36;102209.69;;;10.58;100.00
48636;BME280;34429;52.332;5.614;2022-09-20T00:19:06;102211.22;;;10.62;100.00
48636;BME280;34429;52.332;5.614;2022-09-20T00:21:37;102199.28;;;10.66;100.00
48636;BME280;34429;52.332;5.614;2022-09-20T00:24:06;102195.81;;;10.64;100.00
48636;BME280;34429;52.332;5.614;2022-09-20T00:26:34;102196.03;;;10.61;100.00
48636;BME280;34429;52.332;5.614;2022-09-20T00:29:03;102198.94;;;10.58;100.00
48636;BME280;34429;52.332;5.614;2022-09-20T00:31:31;102198.09;;;10.70;100.00
48636;BME280;34429;52.332;5.614;2022-09-20T00:34:01;102191.72;;;10.58;100.00
48636;BME280;34429;52.332;5.614;2022-09-20T00:36:44;102192.91;;;10.54;100.00
48636;BME280;34429;52.332;5.614;2022-09-20T00:39:14;102198.38;;;10.52;100.00
48636;BME280;34429;52.332;5.614;2022-09-20T00:41:43;102198.56;;;10.49;100.00
48636;BME280;34429;52.332;5.614;2022-09-20T00:47:18;102194.59;;;10.55;100.00
48636;BME280;34429;52.332;5.614;2022-09-20T00:49:51;102194.78;;;10.39;100.00
48636;BME280;34429;52.332;5.614;2022-09-20T00:52:23;102204.28;;;10.45;100.00
48636;BME280;34429;52.332;5.614;2022-09-20T00:54:52;102201.38;;;10.48;100.00
48636;BME280;34429;52.332;5.614;2022-09-20T00:57:21;102196.56;;;10.53;100.00
48636;BME280;34429;52.332;5.614;2022-09-20T00:59:51;102197.00;;;10.60;100.00
48636;BME280;34429;52.332;5.614;2022-09-20T01:02:25;102200.03;;;10.68;100.00
48636;BME280;34429;52.332;5.614;2022-09-20T01:04:55;102200.03;;;10.68;100.00
48636;BME280;34429;52.332;5.614;2022-09-20T01:07:27;102198.63;;;10.62;100.00
48636;BME280;34429;52.332;5.614;2022-09-20T01:09:55;102212.28;;;10.59;100.00
48636;BME280;34429;52.332;5.614;2022-09-20T01:12:26;102200.66;;;10.59;100.00
48636;BME280;34429;52.332;5.614;2022-09-20T01:14:58;102202.34;;;10.47;100.00
48636;BME280;34429;52.332;5.614;2022-09-20T01:17:30;102194.78;;;10.39;100.00
48636;BME280;34429;52.332;5.614;2022-09-20T01:20:08;102202.09;;;10.37;100.00
48636;BME280;34429;52.332;5.614;2022-09-20T01:22:49;102202.09;;;10.37;100.00
48636;BME280;34429;52.332;5.614;2022-09-20T01:25:28;102198.78;;;10.46;100.00
48636;BME280;34429;52.332;5.614;2022-09-20T01:28:06;102199.00;;;10.43;100.00
48636;BME280;34429;52.332;5.614;2022-09-20T01:30:38;102195.44;;;10.43;100.00
48636;BME280;34429;52.332;5.614;2022-09-20T01:33:11;102194.78;;;10.39;100.00
48636;BME280;34429;52.332;5.614;2022-09-20T01:35:44;102199.94;;;10.42;100.00
48636;BME280;34429;52.332;5.614;2022-09-20T01:38:26;102196.50;;;10.40;100.00
48636;BME280;34429;52.332;5.614;2022-09-20T01:41:02;102198.03;;;10.44;100.00
48636;BME280;34429;52.332;5.614;2022-09-20T01:43:40;102203.81;;;10.38;100.00
48636;BME280;34429;52.332;5.614;2022-09-20T01:46:28;102193.41;;;10.46;100.00
48636;BME280;34429;52.332;5.614;2022-09-20T01:49:07;102192.91;;;10.54;100.00
48636;BME280;34429;52.332;5.614;2022-09-20T01:58:05;102196.25;;;10.58;100.00
48636;BME280;34429;52.332;5.614;2022-09-20T02:00:53;102194.66;;;10.68;100.00
48636;BME280;34429;52.332;5.614;2022-09-20T02:03:43;102191.00;;;10.69;100.00
48636;BME280;34429;52.332;5.614;2022-09-20T02:12:50;102192.22;;;10.78;100.00
48636;BME280;34429;52.332;5.614;2022-09-20T02:15:33;102186.38;;;10.71;100.00
48636;BME280;34429;52.332;5.614;2022-09-20T02:18:20;102188.00;;;10.74;100.00
48636;BME280;34429;52.332;5.614;2022-09-20T02:20:55;102195.09;;;10.75;100.00
48636;BME280;34429;52.332;5.614;2022-09-20T02:23:36;102188.84;;;10.74;100.00
48636;BME280;34429;52.332;5.614;2022-09-20T02:26:23;102188.84;;;10.74;100.00
48636;BME280;34429;52.332;5.614;2022-09-20T02:29:03;102190.69;;;10.74;100.00
48636;BME280;34429;52.332;5.614;2022-09-20T02:31:48;102193.97;;;10.64;100.00
48636;BME280;34429;52.332;5.614;2022-09-20T02:34:51;102191.44;;;10.76;100.00
48636;BME280;34429;52.332;5.614;2022-09-20T02:41:11;102190.69;;;10.74;100.00
48636;BME280;34429;52.332;5.614;2022-09-20T02:43:49;102194.44;;;10.71;100.00
48636;BME280;34429;52.332;5.614;2022-09-20T02:46:22;102191.41;;;10.63;100.00
48636;BME280;34429;52.332;5.614;2022-09-20T02:49:03;102191.81;;;10.57;100.00
48636;BME280;34429;52.332;5.614;2022-09-20T02:51:39;102200.88;;;10.56;100.00
48636;BME280;34429;52.332;5.614;2022-09-20T02:54:16;102201.38;;;10.48;100.00
48636;BME280;34429;52.332;5.614;2022-09-20T02:56:54;102197.81;;;10.47;100.00
48636;BME280;34429;52.332;5.614;2022-09-20T02:59:34;102198.44;;;10.38;100.00
48636;BME280;34429;52.332;5.614;2022-09-20T03:02:17;102197.84;;;10.33;100.00
48636;BME280;34429;52.332;5.614;2022-09-20T03:04:56;102203.06;;;10.22;100.00
48636;BME280;34429;52.332;5.614;2022-09-20T03:07:41;102198.09;;;10.15;100.00
48636;BME280;34429;52.332;5.614;2022-09-20T03:10:19;102206.16;;;10.15;100.00
48636;BME280;34429;52.332;5.614;2022-09-20T03:12:59;102197.53;;;10.10;100.00
48636;BME280;34429;52.332;5.614;2022-09-20T03:15:41;102196.00;;;10.06;100.00
48636;BME280;34429;52.332;5.614;2022-09-20T03:18:13;102200.44;;;10.07;100.00
48636;BME280;34429;52.332;5.614;2022-09-20T03:20:53;102190.94;;;10.02;100.00
48636;BME280;34429;52.332;5.614;2022-09-20T03:23:39;102191.06;;;9.86;100.00
48636;BME280;34429;52.332;5.614;2022-09-20T03:26:17;102196.94;;;9.78;100.00
48636;BME280;34429;52.332;5.614;2022-09-20T03:29:00;102199.53;;;9.79;100.00
48636;BME280;34429;52.332;5.614;2022-09-20T03:31:43;102192.69;;;9.74;100.00
48636;BME280;34429;52.332;5.614;2022-09-20T03:34:28;102196.94;;;9.78;100.00
48636;BME280;34429;52.332;5.614;2022-09-20T03:37:25;102200.66;;;9.75;100.00
48636;BME280;34429;52.332;5.614;2022-09-20T03:40:22;102197.44;;;9.70;100.00
48636;BME280;34429;52.332;5.614;2022-09-20T03:42:59;102200.78;;;9.74;100.00
48636;BME280;34429;52.332;5.614;2022-09-20T03:45:50;102204.31;;;9.74;100.00
48636;BME280;34429;52.332;5.614;2022-09-20T03:48:30;102201.25;;;9.80;100.00
48636;BME280;34429;52.332;5.614;2022-09-20T03:51:11;102207.75;;;9.91;100.00
48636;BME280;34429;52.332;5.614;2022-09-20T03:53:55;102204.47;;;10.00;100.00
48636;BME280;34429;52.332;5.614;2022-09-20T03:56:55;102203.38;;;10.17;100.00
48636;BME280;34429;52.332;5.614;2022-09-20T03:59:41;102206.53;;;10.24;100.00
48636;BME280;34429;52.332;5.614;2022-09-20T04:02:32;102208.06;;;10.28;100.00
48636;BME280;34429;52.332;5.614;2022-09-20T04:05:06;102217.59;;;10.33;100.00
48636;BME280;34429;52.332;5.614;2022-09-20T04:07:47;102219.78;;;10.41;100.00
48636;BME280;34429;52.332;5.614;2022-09-20T04:10:40;102229.28;;;10.47;100.00
48636;BME280;34429;52.332;5.614;2022-09-20T04:13:29;102230.50;;;10.56;100.00
48636;BME280;34429;52.332;5.614;2022-09-20T04:16:09;102226.22;;;10.66;100.00
48636;BME280;34429;52.332;5.614;2022-09-20T04:18:44;102222.66;;;10.65;100.00
48636;BME280;34429;52.332;5.614;2022-09-20T04:21:18;102225.38;;;10.78;100.00
48636;BME280;34429;52.332;5.614;2022-09-20T04:23:54;102226.91;;;10.82;100.00
48636;BME280;34429;52.332;5.614;2022-09-20T04:26:26;102219.91;;;10.93;100.00
48636;BME280;34429;52.332;5.614;2022-09-20T04:29:04;102228.44;;;10.86;100.00
48636;BME280;34429;52.332;5.614;2022-09-20T04:31:42;102228.44;;;10.86;100.00
48636;BME280;34429;52.332;5.614;2022-09-20T04:34:16;102221.19;;;10.87;100.00
48636;BME280;34429;52.332;5.614;2022-09-20T04:36:56;102223.34;;;10.95;100.00
48636;BME280;34429;52.332;5.614;2022-09-20T04:39:33;102230.28;;;10.99;100.00
48636;BME280;34429;52.332;5.614;2022-09-20T04:45:46;102220.13;;;10.90;100.00
48636;BME280;34429;52.332;5.614;2022-09-20T04:48:47;102220.94;;;10.77;100.00
48636;BME280;34429;52.332;5.614;2022-09-20T04:55:00;102235.34;;;10.63;100.00
48636;BME280;34429;52.332;5.614;2022-09-20T04:57:57;102227.81;;;10.56;100.00
48636;BME280;34429;52.332;5.614;2022-09-20T05:00:45;102229.75;;;10.66;100.00
48636;BME280;34429;52.332;5.614;2022-09-20T05:03:35;102230.09;;;10.75;100.00
48636;BME280;34429;52.332;5.614;2022-09-20T05:06:39;102228.59;;;10.71;100.00
48636;BME280;34429;52.332;5.614;2022-09-20T05:09:29;102226.34;;;10.77;100.00
48636;BME280;34429;52.332;5.614;2022-09-20T05:12:23;102231.41;;;10.82;100.00
48636;BME280;34429;52.332;5.614;2022-09-20T05:15:19;102227.84;;;10.81;100.00
48636;BME280;34429;52.332;5.614;2022-09-20T05:18:14;102226.13;;;10.80;100.00
48636;BME280;34429;52.332;5.614;2022-09-20T05:20:55;102234.56;;;10.89;100.00
48636;BME280;34429;52.332;5.614;2022-09-20T05:23:58;102225.09;;;10.96;100.00
48636;BME280;34429;52.332;5.614;2022-09-20T05:26:42;102228.00;;;10.93;100.00
48636;BME280;34429;52.332;5.614;2022-09-20T05:29:18;102227.22;;;10.91;100.00
48636;BME280;34429;52.332;5.614;2022-09-20T05:31:51;102236.72;;;10.96;100.00
48636;BME280;34429;52.332;5.614;2022-09-20T05:34:26;102234.03;;;10.96;100.00
48636;BME280;34429;52.332;5.614;2022-09-20T05:37:03;102230.09;;;11.15;100.00
48636;BME280;34429;52.332;5.614;2022-09-20T05:39:37;102240.94;;;11.00;100.00
48636;BME280;34429;52.332;5.614;2022-09-20T05:42:15;102252.47;;;11.02;100.00
48636;BME280;34429;52.332;5.614;2022-09-20T05:45:02;102252.25;;;11.05;100.00
48636;BME280;34429;52.332;5.614;2022-09-20T05:47:38;102257.25;;;11.12;100.00
48636;BME280;34429;52.332;5.614;2022-09-20T05:50:25;102268.69;;;11.28;100.00
48636;BME280;34429;52.332;5.614;2022-09-20T05:53:11;102283.56;;;11.34;100.00
48636;BME280;34429;52.332;5.614;2022-09-20T05:55:51;102280.09;;;11.32;100.00
48636;BME280;34429;52.332;5.614;2022-09-20T05:58:38;102285.00;;;11.39;100.00
48636;BME280;34429;52.332;5.614;2022-09-20T06:01:17;102288.84;;;11.48;100.00
48636;BME280;34429;52.332;5.614;2022-09-20T06:03:49;102288.09;;;11.46;100.00
48636;BME280;34429;52.332;5.614;2022-09-20T06:06:27;102296.66;;;11.53;100.00
48636;BME280;34429;52.332;5.614;2022-09-20T06:09:17;102290.50;;;11.64;100.00
48636;BME280;34429;52.332;5.614;2022-09-20T06:11:59;102290.28;;;11.67;100.00
48636;BME280;34429;52.332;5.614;2022-09-20T06:14:40;102297.19;;;11.71;100.00
48636;BME280;34429;52.332;5.614;2022-09-20T06:17:18;102295.88;;;11.77;100.00
48636;BME280;34429;52.332;5.614;2022-09-20T06:19:54;102289.94;;;11.84;100.00
48636;BME280;34429;52.332;5.614;2022-09-20T06:22:30;102286.81;;;11.90;100.00
48636;BME280;34429;52.332;5.614;2022-09-20T06:25:12;102281.00;;;11.84;100.00
48636;BME280;34429;52.332;5.614;2022-09-20T06:27:45;102287.13;;;11.86;100.00
48636;BME280;34429;52.332;5.614;2022-09-20T06:30:20;102281.75;;;11.99;100.00
48636;BME280;34429;52.332;5.614;2022-09-20T06:32:57;102272.25;;;12.06;100.00
48636;BME280;34429;52.332;5.614;2022-09-20T06:35:32;102272.44;;;12.16;100.00
48636;BME280;34429;52.332;5.614;2022-09-20T06:38:15;102286.56;;;12.19;100.00
48636;BME280;34429;52.332;5.614;2022-09-20T06:41:03;102276.78;;;12.42;100.00
48636;BME280;34429;52.332;5.614;2022-09-20T06:43:44;102277.94;;;12.51;100.00
48636;BME280;34429;52.332;5.614;2022-09-20T06:46:13;102279.09;;;12.60;100.00
48636;BME280;34429;52.332;5.614;2022-09-20T06:48:42;102276.03;;;12.65;100.00
48636;BME280;34429;52.332;5.614;2022-09-20T06:51:10;102274.94;;;12.67;100.00
48636;BME280;34429;52.332;5.614;2022-09-20T06:53:39;102280.53;;;12.77;100.00
48636;BME280;34429;52.332;5.614;2022-09-20T06:56:16;102284.44;;;12.73;100.00
48636;BME280;34429;52.332;5.614;2022-09-20T06:58:45;102291.22;;;12.78;100.00
48636;BME280;34429;52.332;5.614;2022-09-20T07:01:13;102291.28;;;12.90;100.00
48636;BME280;34429;52.332;5.614;2022-09-20T07:03:42;102302.72;;;12.93;100.00
48636;BME280;34429;52.332;5.614;2022-09-20T07:06:11;102306.31;;;13.05;100.00
48636;BME280;34429;52.332;5.614;2022-09-20T07:08:42;102302.78;;;13.16;100.00
48636;BME280;34429;52.332;5.614;2022-09-20T07:11:16;102306.63;;;13.25;100.00
48636;BME280;34429;52.332;5.614;2022-09-20T07:13:49;102300.31;;;13.37;100.00
48636;BME280;34429;52.332;5.614;2022-09-20T07:16:18;102301.09;;;13.51;100.00
48636;BME280;34429;52.332;5.614;2022-09-20T07:18:47;102298.03;;;13.66;100.00
48636;BME280;34429;52.332;5.614;2022-09-20T07:21:17;102306.41;;;13.86;100.00
48636;BME280;34429;52.332;5.614;2022-09-20T07:23:46;102300.03;;;13.87;100.00
48636;BME280;34429;52.332;5.614;2022-09-20T07:26:20;102308.63;;;13.92;100.00
48636;BME280;34429;52.332;5.614;2022-09-20T07:28:49;102303.97;;;13.94;100.00
48636;BME280;34429;52.332;5.614;2022-09-20T07:31:20;102312.22;;;13.93;100.00
48636;BME280;34429;52.332;5.614;2022-09-20T07:33:48;102313.81;;;14.07;100.00
48636;BME280;34429;52.332;5.614;2022-09-20T07:36:17;102313.44;;;14.11;100.00
48636;BME280;34429;52.332;5.614;2022-09-20T07:38:47;102318.72;;;14.13;100.00
48636;BME280;34429;52.332;5.614;2022-09-20T07:41:19;102315.41;;;13.98;100.00
48636;BME280;34429;52.332;5.614;2022-09-20T07:43:48;102320.31;;;13.81;100.00
48636;BME280;34429;52.332;5.614;2022-09-20T07:46:17;102326.44;;;13.61;100.00
48636;BME280;34429;52.332;5.614;2022-09-20T07:48:48;102328.91;;;13.87;100.00
48636;BME280;34429;52.332;5.614;2022-09-20T07:51:16;102330.03;;;14.07;100.00
48636;BME280;34429;52.332;5.614;2022-09-20T07:53:45;102325.84;;;14.02;100.00
48636;BME280;34429;52.332;5.614;2022-09-20T07:56:14;102347.09;;;13.73;100.00
48636;BME280;34429;52.332;5.614;2022-09-20T07:58:45;102343.53;;;13.61;100.00
48636;BME280;34429;52.332;5.614;2022-09-20T08:01:14;102350.69;;;13.85;100.00
48636;BME280;34429;52.332;5.614;2022-09-20T08:03:44;102358.06;;;13.72;100.00
48636;BME280;34429;52.332;5.614;2022-09-20T08:06:12;102358.53;;;13.65;100.00
48636;BME280;34429;52.332;5.614;2022-09-20T08:08:43;102353.38;;;13.62;100.00
48636;BME280;34429;52.332;5.614;2022-09-20T08:11:13;102355.22;;;13.73;100.00
48636;BME280;34429;52.332;5.614;2022-09-20T08:13:46;102353.53;;;13.72;100.00
48636;BME280;34429;52.332;5.614;2022-09-20T08:16:15;102341.31;;;13.78;100.00
48636;BME280;34429;52.332;5.614;2022-09-20T08:18:44;102333.25;;;14.00;100.00
48636;BME280;34429;52.332;5.614;2022-09-20T08:21:13;102335.22;;;13.87;100.00
48636;BME280;34429;52.332;5.614;2022-09-20T08:23:43;102344.31;;;14.31;100.00
48636;BME280;34429;52.332;5.614;2022-09-20T08:26:14;102346.47;;;14.60;100.00
48636;BME280;34429;52.332;5.614;2022-09-20T08:28:43;102340.31;;;14.81;100.00
48636;BME280;34429;52.332;5.614;2022-09-20T08:31:15;102341.00;;;14.94;100.00
48636;BME280;34429;52.332;5.614;2022-09-20T08:33:45;102341.06;;;14.83;100.00
48636;BME280;34429;52.332;5.614;2022-09-20T08:36:16;102349.63;;;14.99;100.00
48636;BME280;34429;52.332;5.614;2022-09-20T08:38:45;102353.56;;;15.06;100.00
48636;BME280;34429;52.332;5.614;2022-09-20T08:41:17;102345.75;;;15.13;100.00
48636;BME280;34429;52.332;5.614;2022-09-20T08:43:50;102348.50;;;15.34;100.00
48636;BME280;34429;52.332;5.614;2022-09-20T08:46:25;102348.28;;;15.26;100.00
48636;BME280;34429;52.332;5.614;2022-09-20T08:48:54;102344.78;;;15.35;100.00
48636;BME280;34429;52.332;5.614;2022-09-20T08:51:27;102340.28;;;15.88;100.00
48636;BME280;34429;52.332;5.614;2022-09-20T08:53:57;102345.03;;;16.17;100.00
48636;BME280;34429;52.332;5.614;2022-09-20T08:56:31;102334.16;;;16.17;100.00
48636;BME280;34429;52.332;5.614;2022-09-20T08:59:01;102329.47;;;16.28;100.00
48636;BME280;34429;52.332;5.614;2022-09-20T09:01:32;102339.31;;;16.20;100.00
48636;BME280;34429;52.332;5.614;2022-09-20T09:04:12;102331.47;;;16.26;100.00
48636;BME280;34429;52.332;5.614;2022-09-20T09:06:41;102328.59;;;16.18;100.00
48636;BME280;34429;52.332;5.614;2022-09-20T09:09:16;102337.66;;;16.38;100.00
48636;BME280;34429;52.332;5.614;2022-09-20T09:11:47;102333.91;;;16.29;100.00
48636;BME280;34429;52.332;5.614;2022-09-20T09:14:26;102341.38;;;16.37;100.00
48636;BME280;34429;52.332;5.614;2022-09-20T09:17:13;102346.72;;;16.18;100.00
48636;BME280;34429;52.332;5.614;2022-09-20T09:19:43;102339.66;;;16.36;100.00
48636;BME280;34429;52.332;5.614;2022-09-20T09:22:18;102343.06;;;16.38;100.00
48636;BME280;34429;52.332;5.614;2022-09-20T09:25:05;102343.47;;;16.84;100.00
48636;BME280;34429;52.332;5.614;2022-09-20T09:27:34;102342.13;;;17.09;100.00
48636;BME280;34429;52.332;5.614;2022-09-20T09:30:19;102349.63;;;16.76;100.00
48636;BME280;34429;52.332;5.614;2022-09-20T09:32:51;102347.09;;;17.04;100.00
48636;BME280;34429;52.332;5.614;2022-09-20T09:35:24;102355.25;;;17.04;100.00
48636;BME280;34429;52.332;5.614;2022-09-20T09:37:54;102346.03;;;16.66;100.00
48636;BME280;34429;52.332;5.614;2022-09-20T09:40:24;102357.50;;;16.79;100.00
48636;BME280;34429;52.332;5.614;2022-09-20T09:42:54;102360.94;;;16.81;100.00
48636;BME280;34429;52.332;5.614;2022-09-20T09:45:26;102360.00;;;16.52;100.00
48636;BME280;34429;52.332;5.614;2022-09-20T09:47:59;102357.06;;;16.74;100.00
48636;BME280;34429;52.332;5.614;2022-09-20T09:50:31;102356.69;;;16.98;100.00
48636;BME280;34429;52.332;5.614;2022-09-20T09:53:07;102359.41;;;16.89;100.00
48636;BME280;34429;52.332;5.614;2022-09-20T09:56:01;102357.53;;;16.89;100.00
48636;BME280;34429;52.332;5.614;2022-09-20T09:58:49;102357.28;;;17.31;100.00
48636;BME280;34429;52.332;5.614;2022-09-20T10:01:28;102361.81;;;17.70;100.00
48636;BME280;34429;52.332;5.614;2022-09-20T10:04:10;102363.22;;;18.03;100.00
48636;BME280;34429;52.332;5.614;2022-09-20T10:06:47;102344.56;;;17.99;100.00
48636;BME280;34429;52.332;5.614;2022-09-20T10:09:26;102354.59;;;18.08;100.00
48636;BME280;34429;52.332;5.614;2022-09-20T10:12:08;102352.56;;;18.10;100.00
48636;BME280;34429;52.332;5.614;2022-09-20T10:14:53;102346.63;;;17.58;100.00
48636;BME280;34429;52.332;5.614;2022-09-20T10:17:35;102350.09;;;17.60;100.00
48636;BME280;34429;52.332;5.614;2022-09-20T10:20:23;102352.91;;;17.88;100.00
48636;BME280;34429;52.332;5.614;2022-09-20T10:22:57;102353.84;;;18.06;100.00
48636;BME280;34429;52.332;5.614;2022-09-20T10:25:38;102356.63;;;17.86;100.00
48636;BME280;34429;52.332;5.614;2022-09-20T10:28:21;102346.31;;;17.80;100.00
48636;BME280;34429;52.332;5.614;2022-09-20T10:31:00;102342.41;;;17.26;100.00
48636;BME280;34429;52.332;5.614;2022-09-20T10:33:37;102354.13;;;17.36;100.00
48636;BME280;34429;52.332;5.614;2022-09-20T10:36:21;102351.47;;;17.74;100.00
48636;BME280;34429;52.332;5.614;2022-09-20T10:38:56;102346.31;;;18.28;100.00
48636;BME280;34429;52.332;5.614;2022-09-20T10:41:45;102337.81;;;18.86;100.00
48636;BME280;34429;52.332;5.614;2022-09-20T10:44:37;102341.09;;;18.90;100.00
48636;BME280;34429;52.332;5.614;2022-09-20T10:47:13;102341.34;;;18.69;100.00
48636;BME280;34429;52.332;5.614;2022-09-20T10:49:51;102339.09;;;17.99;100.00
48636;BME280;34429;52.332;5.614;2022-09-20T10:52:36;102338.75;;;18.21;100.00
48636;BME280;34429;52.332;5.614;2022-09-20T10:55:19;102339.22;;;18.45;100.00
48636;BME280;34429;52.332;5.614;2022-09-20T11:00:59;102350.19;;;18.53;100.00
48636;BME280;34429;52.332;5.614;2022-09-20T11:03:51;102345.78;;;18.24;100.00
48636;BME280;34429;52.332;5.614;2022-09-20T11:06:28;102350.25;;;18.15;100.00
48636;BME280;34429;52.332;5.614;2022-09-20T11:09:08;102342.44;;;18.30;100.00
48636;BME280;34429;52.332;5.614;2022-09-20T11:11:41;102346.69;;;18.33;100.00
48636;BME280;34429;52.332;5.614;2022-09-20T11:14:12;102346.91;;;18.21;100.00
48636;BME280;34429;52.332;5.614;2022-09-20T11:16:47;102346.03;;;18.21;100.00
48636;BME280;34429;52.332;5.614;2022-09-20T11:19:21;102346.00;;;18.31;100.00
48636;BME280;34429;52.332;5.614;2022-09-20T11:21:56;102349.81;;;18.10;100.00
48636;BME280;34429;52.332;5.614;2022-09-20T11:24:33;102347.59;;;18.79;100.00
48636;BME280;34429;52.332;5.614;2022-09-20T11:27:07;102346.94;;;19.13;100.00
48636;BME280;34429;52.332;5.614;2022-09-20T11:29:41;102345.50;;;18.73;100.00
48636;BME280;34429;52.332;5.614;2022-09-20T11:32:14;102351.84;;;19.28;100.00
48636;BME280;34429;52.332;5.614;2022-09-20T11:34:49;102343.50;;;19.73;100.00
48636;BME280;34429;52.332;5.614;2022-09-20T11:37:21;102347.72;;;19.05;100.00
48636;BME280;34429;52.332;5.614;2022-09-20T11:39:59;102345.91;;;18.96;100.00
48636;BME280;34429;52.332;5.614;2022-09-20T11:42:30;102356.63;;;18.80;100.00
48636;BME280;34429;52.332;5.614;2022-09-20T11:45:01;102354.06;;;18.50;100.00
48636;BME280;34429;52.332;5.614;2022-09-20T11:47:34;102359.94;;;18.28;100.00
48636;BME280;34429;52.332;5.614;2022-09-20T11:50:18;102359.09;;;17.70;100.00
48636;BME280;34429;52.332;5.614;2022-09-20T11:53:08;102360.88;;;17.42;100.00
48636;BME280;34429;52.332;5.614;2022-09-20T11:55:46;102362.97;;;17.58;100.00
48636;BME280;34429;52.332;5.614;2022-09-20T11:58:19;102366.34;;;17.99;100.00
48636;BME280;34429;52.332;5.614;2022-09-20T12:00:49;102367.22;;;17.99;100.00
48636;BME280;34429;52.332;5.614;2022-09-20T12:03:24;102367.47;;;18.06;100.00
48636;BME280;34429;52.332;5.614;2022-09-20T12:05:58;102365.06;;;18.41;100.00
48636;BME280;34429;52.332;5.614;2022-09-20T12:08:29;102366.59;;;18.71;100.00
48636;BME280;34429;52.332;5.614;2022-09-20T12:11:03;102363.63;;;18.64;100.00
48636;BME280;34429;52.332;5.614;2022-09-20T12:13:35;102358.97;;;19.02;100.00
48636;BME280;34429;52.332;5.614;2022-09-20T12:16:06;102364.72;;;19.35;100.00
48636;BME280;34429;52.332;5.614;2022-09-20T12:18:45;102361.84;;;19.19;100.00
48636;BME280;34429;52.332;5.614;2022-09-20T12:21:15;102361.59;;;19.12;100.00
48636;BME280;34429;52.332;5.614;2022-09-20T12:24:20;102369.00;;;19.38;100.00
48636;BME280;34429;52.332;5.614;2022-09-20T12:26:56;102360.41;;;19.33;100.00
48636;BME280;34429;52.332;5.614;2022-09-20T12:29:50;102361.06;;;19.26;100.00
48636;BME280;34429;52.332;5.614;2022-09-20T12:32:52;102365.25;;;19.39;100.00
48636;BME280;34429;52.332;5.614;2022-09-20T12:38:33;102359.34;;;19.07;100.00
48636;BME280;34429;52.332;5.614;2022-09-20T12:41:07;102363.88;;;18.43;100.00
48636;BME280;34429;52.332;5.614;2022-09-20T12:43:51;102359.50;;;18.60;100.00
48636;BME280;34429;52.332;5.614;2022-09-20T12:46:28;102356.00;;;18.68;100.00
48636;BME280;34429;52.332;5.614;2022-09-20T12:49:18;102359.03;;;18.93;100.00
48636;BME280;34429;52.332;5.614;2022-09-20T12:52:00;102359.34;;;18.89;100.00
48636;BME280;34429;52.332;5.614;2022-09-20T12:54:50;102358.81;;;18.76;100.00
48636;BME280;34429;52.332;5.614;2022-09-20T12:57:27;102360.63;;;18.30;100.00
48636;BME280;34429;52.332;5.614;2022-09-20T13:00:00;102354.44;;;18.10;100.00
48636;BME280;34429;52.332;5.614;2022-09-20T13:02:56;102348.84;;;18.67;100.00
48636;BME280;34429;52.332;5.614;2022-09-20T13:05:33;102355.31;;;18.84;100.00
48636;BME280;34429;52.332;5.614;2022-09-20T13:08:14;102354.69;;;18.72;100.00
48636;BME280;34429;52.332;5.614;2022-09-20T13:10:46;102362.97;;;18.52;100.00
48636;BME280;34429;52.332;5.614;2022-09-20T13:13:30;102353.78;;;18.53;100.00
48636;BME280;34429;52.332;5.614;2022-09-20T13:16:03;102356.75;;;18.32;100.00
48636;BME280;34429;52.332;5.614;2022-09-20T13:18:34;102352.75;;;18.82;100.00
48636;BME280;34429;52.332;5.614;2022-09-20T13:21:05;102351.91;;;19.36;100.00
48636;BME280;34429;52.332;5.614;2022-09-20T13:23:44;102355.66;;;19.17;100.00
48636;BME280;34429;52.332;5.614;2022-09-20T13:26:14;102348.97;;;18.93;100.00
48636;BME280;34429;52.332;5.614;2022-09-20T13:28:46;102356.22;;;18.56;100.00
48636;BME280;34429;52.332;5.614;2022-09-20T13:31:31;102352.09;;;18.98;100.00
48636;BME280;34429;52.332;5.614;2022-09-20T13:34:14;102350.84;;;18.93;100.00
48636;BME280;34429;52.332;5.614;2022-09-20T13:36:46;102347.63;;;18.97;100.00
48636;BME280;34429;52.332;5.614;2022-09-20T13:39:28;102355.91;;;18.60;100.00
48636;BME280;34429;52.332;5.614;2022-09-20T13:42:00;102355.91;;;17.84;100.00
48636;BME280;34429;52.332;5.614;2022-09-20T13:44:31;102355.69;;;17.48;100.00
48636;BME280;34429;52.332;5.614;2022-09-20T13:47:19;102355.19;;;17.82;100.00
48636;BME280;34429;52.332;5.614;2022-09-20T13:49:48;102364.84;;;17.67;100.00
48636;BME280;34429;52.332;5.614;2022-09-20T13:52:23;102368.59;;;17.46;100.00
48636;BME280;34429;52.332;5.614;2022-09-20T13:54:51;102358.50;;;17.76;100.00
48636;BME280;34429;52.332;5.614;2022-09-20T13:57:22;102353.38;;;18.20;100.00
48636;BME280;34429;52.332;5.614;2022-09-20T13:59:53;102363.28;;;18.49;100.00
48636;BME280;34429;52.332;5.614;2022-09-20T14:02:26;102360.78;;;18.84;100.00
48636;BME280;34429;52.332;5.614;2022-09-20T14:04:59;102353.91;;;18.80;100.00